Urbana, IL (61803)

9:18 PM CDT on May 26, 2015 (GMT -0500)
Crop Sciences Research & Education Center | | Change Station
CLOSE
Current Station
Personal Weather Station
Location: Urbana, IL
Elevation: 730 ft
Nearby Weather Stations

Elev 730 ft 40.09 °N, 88.23 °W | Updated 4 minutes ago

Clear
Clear
67.4 °F
Feels Like 67.4 °F
N
5.9
Wind Variable Wind from SSW
Gusts 8.5 mph

Today
High -- | Low -- °F
--% Chance of Precip.
Yesterday
High -- | Low -- °F
Precip. -- in
5:29 AM 8:11 PM
Waxing Gibbous, 63% visible
Pressure 29.92 in
Visibility 10.0 miles
Clouds Clear
Dew Point 43 °F
Humidity 42%
Rainfall -999.00 in
Snow Depth Not available.
UV 0 out of 12
Pollen 4.00 out of 12
Air Quality Not available.
Flu Activity Sporadic
METAR KCMI 270153Z 19008KT 10SM CLR 20/16 A2993 RMK AO2 SLP130 T02000161

More Conditions Fewer Conditions

Pressure 29.92 in
Visibility 10.0 miles
Clouds Clear
Dew Point 43 °F
Humidity 42%
Rainfall -999.00 in
Snow Depth Not available.
UV 0 out of 12
Pollen 4.00 out of 12
Air Quality Not available.
Flu Activity Sporadic
METAR KCMI 270153Z 19008KT 10SM CLR 20/16 A2993 RMK AO2 SLP130 T02000161

More Conditions Fewer Conditions

10-Day Weather Forecast

Almanac

Astronomy

May. 26, 2015 Rise Set
Actual Time
Civil Twilight
Nautical Twilight
Astronomical Twilight
Moon
Length of Visible Light
Length of Day
Tomorrow will be .
, % of the Moon is Illuminated

Today's Extremes

State Highs State Lows

Community

WunderPhotos

Upload Photos

1,824,561 photos uploaded!

WunderBlogs® & News

Nearby

Air Quality

  Air Quality AQ Index Pollutant
Not available.

Snow Depth

Station Depth Elevation

Earthquake Activity

City Distance Mag. Time & Date
Minimum magnitude displayed is 2.5.

Coastal Water Temperatures

Place Temperature

Stations

Nearby Weather Stations

Station Location Temp. Windchill Dew Point Humidity Wind Precip. Elev Updated Type